createdAt,value
2023-01-17T00:02:15.533Z,96047.94
2023-01-17T00:05:00.994Z,96057.53
2023-01-17T00:08:02.778Z,96065.44
2023-01-17T00:10:30.846Z,96049.38
2023-01-17T00:13:00.660Z,96078.72
2023-01-17T00:15:30.708Z,96074.16
2023-01-17T00:17:58.791Z,96092.78
2023-01-17T00:20:54.588Z,96094.75
2023-01-17T00:23:42.812Z,96092.22
2023-01-17T00:26:12.533Z,96107.00
2023-01-17T00:28:40.858Z,96105.25
2023-01-17T00:31:09.258Z,96105.44
2023-01-17T00:33:36.241Z,96095.25
2023-01-17T00:36:03.646Z,96107.69
2023-01-17T00:38:33.316Z,96109.34
2023-01-17T00:41:02.227Z,96106.41
2023-01-17T00:43:48.258Z,96112.44
2023-01-17T00:46:33.950Z,96107.72
2023-01-17T00:49:19.256Z,96122.03
2023-01-17T00:52:04.880Z,96130.75
2023-01-17T00:54:51.418Z,96134.75
2023-01-17T00:57:36.656Z,96129.91
2023-01-17T01:00:22.624Z,96143.94
2023-01-17T01:03:08.022Z,96147.09
2023-01-17T01:05:53.510Z,96156.94
2023-01-17T01:08:40.724Z,96160.84
2023-01-17T01:11:29.349Z,96167.91
2023-01-17T01:14:14.864Z,96177.00
2023-01-17T01:17:00.204Z,96165.94
2023-01-17T01:19:45.541Z,96175.72
2023-01-17T01:22:31.577Z,96178.31
2023-01-17T01:25:16.839Z,96193.34
2023-01-17T01:28:03.500Z,96198.56
2023-01-17T01:30:48.913Z,96203.56
2023-01-17T01:33:21.463Z,96209.50
2023-01-17T01:35:50.502Z,96209.88
2023-01-17T01:38:19.212Z,96223.25
2023-01-17T01:40:48.711Z,96212.03
2023-01-17T01:43:19.944Z,96206.81
2023-01-17T01:45:50.705Z,96212.84
2023-01-17T01:48:27.559Z,96206.81
2023-01-17T01:50:55.177Z,96213.69
2023-01-17T01:53:23.091Z,96212.38
2023-01-17T01:55:52.135Z,96213.59
2023-01-17T01:58:24.023Z,96226.66
2023-01-17T02:00:51.835Z,96226.78
2023-01-17T02:03:22.927Z,96219.34
2023-01-17T02:05:50.662Z,96218.88
2023-01-17T02:08:19.495Z,96224.69
2023-01-17T02:10:47.235Z,96226.28
2023-01-17T02:13:17.759Z,96226.81
2023-01-17T02:15:56.527Z,96225.91
2023-01-17T02:18:31.256Z,96221.97
2023-01-17T02:21:10.261Z,96230.88
2023-01-17T02:24:09.230Z,96230.56
2023-01-17T02:26:53.771Z,96228.31
2023-01-17T02:30:05.763Z,96225.22
2023-01-17T02:32:41.466Z,96225.91
2023-01-17T02:35:15.077Z,96220.97
2023-01-17T02:37:49.318Z,96228.75
2023-01-17T02:40:21.002Z,96233.63
2023-01-17T02:42:52.820Z,96240.41
2023-01-17T02:45:21.136Z,96244.19
2023-01-17T02:47:50.052Z,96244.63
2023-01-17T02:50:19.513Z,96247.63
2023-01-17T02:52:57.583Z,96236.56
2023-01-17T02:55:32.400Z,96233.00
2023-01-17T02:58:09.511Z,96226.28
2023-01-17T03:00:45.912Z,96243.88
2023-01-17T03:03:22.861Z,96249.16
2023-01-17T03:05:53.282Z,96243.63
2023-01-17T03:08:21.479Z,96248.91
2023-01-17T03:10:49.207Z,96252.44
2023-01-17T03:13:16.933Z,96254.53
2023-01-17T03:15:44.606Z,96248.50
2023-01-17T03:18:14.964Z,96260.81
2023-01-17T03:20:44.022Z,96253.50
2023-01-17T03:23:11.591Z,96259.97
2023-01-17T03:25:39.161Z,96275.13
2023-01-17T03:28:06.815Z,96296.72
2023-01-17T03:30:34.500Z,96297.03
2023-01-17T03:33:02.285Z,96293.69
2023-01-17T03:35:30.041Z,96302.25
2023-01-17T03:37:59.042Z,96270.06
2023-01-17T03:40:27.034Z,96293.03
2023-01-17T03:42:54.619Z,96299.56
2023-01-17T03:45:22.336Z,96246.63
2023-01-17T03:47:50.018Z,96247.94
2023-01-17T03:50:17.828Z,96289.84
2023-01-17T03:52:45.456Z,96250.63
2023-01-17T03:55:14.616Z,96285.56
2023-01-17T03:57:42.421Z,96281.03
2023-01-17T04:00:11.095Z,96285.66
2023-01-17T04:02:38.847Z,96286.16
2023-01-17T04:05:06.927Z,96276.69
2023-01-17T04:07:34.597Z,96286.41
2023-01-17T04:12:35.205Z,96283.75
2023-01-17T04:15:02.840Z,96286.66
2023-01-17T04:17:30.543Z,96287.75
2023-01-17T04:19:58.202Z,96292.97
2023-01-17T04:22:25.846Z,96285.09
2023-01-17T04:24:53.559Z,96284.25
2023-01-17T04:27:21.115Z,96280.41
2023-01-17T04:29:50.053Z,96283.41
2023-01-17T04:32:17.654Z,96278.56
2023-01-17T04:34:45.283Z,96276.63
2023-01-17T04:37:12.869Z,96289.88
2023-01-17T04:39:40.405Z,96292.88
2023-01-17T04:42:08.000Z,96296.13
2023-01-17T04:44:35.795Z,96299.16
2023-01-17T04:47:04.771Z,96302.66
2023-01-17T04:49:32.320Z,96313.09
2023-01-17T04:51:59.889Z,96312.50
2023-01-17T04:54:27.536Z,96305.88
2023-01-17T04:56:55.197Z,96298.19
2023-01-17T04:59:22.749Z,96337.41
2023-01-17T05:01:50.380Z,96334.38
2023-01-17T05:04:19.671Z,96337.38
2023-01-17T05:06:47.223Z,96341.81
2023-01-17T05:09:14.784Z,96347.19
2023-01-17T05:11:42.471Z,96347.28
2023-01-17T05:14:10.582Z,96351.47
2023-01-17T05:16:38.158Z,96335.22
2023-01-17T05:19:05.740Z,96339.31
2023-01-17T05:21:34.808Z,96340.91
2023-01-17T05:24:02.447Z,96345.28
2023-01-17T05:26:30.012Z,96351.13
2023-01-17T05:28:57.573Z,96347.53
2023-01-17T05:31:25.297Z,96345.28
2023-01-17T05:33:52.873Z,96350.38
2023-01-17T05:36:21.232Z,96340.09
2023-01-17T05:38:50.271Z,96348.78
2023-01-17T05:41:17.929Z,96346.19
2023-01-17T05:43:45.524Z,96336.38
2023-01-17T05:46:13.240Z,96333.63
2023-01-17T05:48:41.103Z,96339.25
2023-01-17T05:51:08.717Z,96341.25
2023-01-17T05:53:36.329Z,96346.44
2023-01-17T05:56:05.700Z,96351.34
2023-01-17T05:58:33.352Z,96352.09
2023-01-17T06:01:02.245Z,96356.38
2023-01-17T06:03:29.845Z,96355.63
2023-01-17T06:05:57.412Z,96362.03
2023-01-17T06:08:25.082Z,96361.97
2023-01-17T06:10:52.814Z,96354.97
2023-01-17T06:13:22.012Z,96358.31
2023-01-17T06:15:49.749Z,96372.13
2023-01-17T06:18:18.697Z,96370.28
2023-01-17T06:20:46.522Z,96370.75
2023-01-17T06:23:15.145Z,96377.53
2023-01-17T06:25:44.324Z,96376.84
2023-01-17T06:28:12.878Z,96379.28
2023-01-17T06:30:42.232Z,96382.25
2023-01-17T06:33:09.928Z,96392.78
2023-01-17T06:35:38.208Z,96382.16
2023-01-17T06:38:05.833Z,96380.81
2023-01-17T06:40:33.687Z,96387.22
2023-01-17T06:43:02.505Z,96375.25
2023-01-17T06:45:30.657Z,96376.22
2023-01-17T06:47:59.844Z,96378.66
2023-01-17T06:50:27.873Z,96379.97
2023-01-17T06:52:57.077Z,96365.03
2023-01-17T06:55:25.075Z,96376.53
2023-01-17T06:57:52.699Z,96375.06
2023-01-17T07:00:21.055Z,96363.56
2023-01-17T07:02:49.946Z,96367.44
2023-01-17T07:05:19.262Z,96344.03
2023-01-17T07:07:47.117Z,96367.44
2023-01-17T07:10:16.526Z,96370.63
2023-01-17T07:12:44.203Z,96367.34
2023-01-17T07:15:12.753Z,96377.97
2023-01-17T07:17:40.583Z,96370.75
2023-01-17T07:20:09.555Z,96362.19
2023-01-17T07:22:38.510Z,96370.44
2023-01-17T07:25:06.937Z,96369.81
2023-01-17T07:27:34.526Z,96371.75
2023-01-17T07:30:02.095Z,96372.09
2023-01-17T07:32:29.888Z,96377.66
2023-01-17T07:34:58.093Z,96376.34
2023-01-17T07:37:26.321Z,96362.09
2023-01-17T07:39:55.410Z,96355.06
2023-01-17T07:42:24.287Z,96360.00
2023-01-17T07:44:52.142Z,96349.72
2023-01-17T07:47:19.932Z,96340.97
2023-01-17T07:49:47.542Z,96344.69
2023-01-17T07:52:17.425Z,96335.78
2023-01-17T07:54:45.740Z,96327.66
2023-01-17T07:57:14.817Z,96334.97
2023-01-17T07:59:42.456Z,96337.31
2023-01-17T08:02:17.544Z,96337.16
2023-01-17T08:04:45.168Z,96339.94
2023-01-17T08:07:13.852Z,96335.00
2023-01-17T08:09:41.527Z,96329.31
2023-01-17T08:12:09.446Z,96331.66
2023-01-17T08:14:38.343Z,96325.47
2023-01-17T08:17:06.628Z,96317.66
2023-01-17T08:19:34.373Z,96321.09
2023-01-17T08:22:01.945Z,96321.53
2023-01-17T08:24:29.587Z,96318.50
2023-01-17T08:26:57.129Z,96317.09
2023-01-17T08:29:25.129Z,96310.09
2023-01-17T08:31:54.307Z,96305.19
2023-01-17T08:34:22.412Z,96292.91
2023-01-17T08:36:50.049Z,96291.19
2023-01-17T08:39:17.817Z,96296.03
2023-01-17T08:41:45.370Z,96297.16
2023-01-17T08:44:13.855Z,96305.91
2023-01-17T08:46:43.984Z,96307.13
2023-01-17T08:49:13.414Z,96313.53
2023-01-17T08:51:41.554Z,96310.44
2023-01-17T08:54:12.764Z,96293.25
2023-01-17T08:56:40.380Z,96318.06
2023-01-17T08:59:08.031Z,96296.50
2023-01-17T09:01:40.620Z,96304.78
2023-01-17T09:04:08.806Z,96329.00
2023-01-17T09:06:39.303Z,96322.69
2023-01-17T09:09:08.110Z,96327.91
2023-01-17T09:11:35.866Z,96333.59
2023-01-17T09:14:03.806Z,96338.97
2023-01-17T09:16:32.018Z,96334.97
2023-01-17T09:19:00.404Z,96333.69
2023-01-17T09:21:28.009Z,96341.50
2023-01-17T09:23:56.971Z,96329.06
2023-01-17T09:26:26.513Z,96332.88
2023-01-17T09:28:54.455Z,96332.41
2023-01-17T09:31:23.508Z,96334.00
2023-01-17T09:33:52.238Z,96331.19
2023-01-17T09:36:20.456Z,96331.09
2023-01-17T09:38:48.033Z,96333.25
2023-01-17T09:41:22.993Z,96337.22
2023-01-17T09:43:53.918Z,96336.75
2023-01-17T09:46:23.824Z,96343.00
2023-01-17T09:48:55.032Z,96339.28
2023-01-17T09:51:24.471Z,96335.63
2023-01-17T09:53:52.379Z,96329.13
2023-01-17T09:56:27.755Z,96338.03
2023-01-17T09:59:10.376Z,96349.59
2023-01-17T10:01:42.801Z,96349.28
2023-01-17T10:04:21.182Z,96344.09
2023-01-17T10:06:58.295Z,96344.50
2023-01-17T10:09:47.282Z,96340.91
2023-01-17T10:12:21.756Z,96346.06
2023-01-17T10:15:03.273Z,96345.25
2023-01-17T10:17:38.548Z,96347.97
2023-01-17T10:20:17.036Z,96343.69
2023-01-17T10:23:00.189Z,96333.88
2023-01-17T10:25:42.863Z,96328.63
2023-01-17T10:28:17.169Z,96334.72
2023-01-17T10:30:49.408Z,96338.88
2023-01-17T10:33:20.439Z,96346.88
2023-01-17T10:35:57.033Z,96341.13
2023-01-17T10:38:29.943Z,96329.72
2023-01-17T10:41:01.732Z,96327.75
2023-01-17T10:43:40.250Z,96337.19
2023-01-17T10:46:16.625Z,96338.53
2023-01-17T10:48:46.232Z,96334.53
2023-01-17T10:51:31.083Z,96330.13
2023-01-17T10:54:08.659Z,96316.06
2023-01-17T10:56:37.892Z,96330.75
2023-01-17T10:59:18.224Z,96340.34
2023-01-17T11:01:46.188Z,96336.72
2023-01-17T11:04:19.672Z,96330.44
2023-01-17T11:06:57.919Z,96323.38
2023-01-17T11:09:38.534Z,96322.56
2023-01-17T11:12:06.427Z,96323.69
2023-01-17T11:14:35.963Z,96319.06
2023-01-17T11:17:05.454Z,96321.09
2023-01-17T11:19:36.172Z,96315.75
2023-01-17T11:22:06.423Z,96306.69
2023-01-17T11:24:37.001Z,96317.28
2023-01-17T11:27:06.377Z,96304.84
2023-01-17T11:29:38.931Z,96305.38
2023-01-17T11:32:29.495Z,96308.53
2023-01-17T11:35:20.017Z,96295.47
2023-01-17T11:37:52.157Z,96292.94
2023-01-17T11:40:25.355Z,96285.78
2023-01-17T11:43:19.530Z,96278.84
2023-01-17T11:46:01.816Z,96279.59
2023-01-17T11:48:35.183Z,96274.09
2023-01-17T11:51:03.980Z,96267.97
2023-01-17T11:53:33.499Z,96262.38
2023-01-17T11:56:05.188Z,96260.19
2023-01-17T11:58:33.967Z,96267.78
2023-01-17T12:01:10.005Z,96257.41
2023-01-17T12:03:54.100Z,96259.25
2023-01-17T12:06:29.063Z,96257.75
2023-01-17T12:09:07.037Z,96247.66
2023-01-17T12:12:04.542Z,96250.16
2023-01-17T12:14:38.516Z,96244.22
2023-01-17T12:17:17.379Z,96243.50
2023-01-17T12:20:00.862Z,96241.97
2023-01-17T12:22:39.865Z,96237.47
2023-01-17T12:25:24.615Z,96229.63
2023-01-17T12:28:01.922Z,96230.03
2023-01-17T12:30:51.334Z,96225.13
2023-01-17T12:33:24.520Z,96215.09
2023-01-17T12:35:56.577Z,96216.56
2023-01-17T12:38:32.775Z,96208.69
2023-01-17T12:41:08.134Z,96216.47
2023-01-17T12:43:38.598Z,96201.03
2023-01-17T12:46:11.964Z,96196.16
2023-01-17T12:48:42.222Z,96200.56
2023-01-17T12:51:17.247Z,96203.19
2023-01-17T12:53:49.773Z,96197.41
2023-01-17T12:56:26.823Z,96201.38
2023-01-17T12:59:00.174Z,96193.53
2023-01-17T13:01:31.074Z,96190.53
2023-01-17T13:04:16.673Z,96189.59
2023-01-17T13:06:53.452Z,96178.41
2023-01-17T13:09:23.722Z,96186.22
2023-01-17T13:11:58.833Z,96189.25
2023-01-17T13:14:27.933Z,96175.13
2023-01-17T13:16:57.789Z,96179.69
2023-01-17T13:19:32.771Z,96171.53
2023-01-17T13:22:02.288Z,96173.34
2023-01-17T13:24:37.073Z,96182.19
2023-01-17T13:27:28.074Z,96175.06
2023-01-17T13:30:05.925Z,96176.44
2023-01-17T13:32:50.039Z,96173.66
2023-01-17T13:35:26.962Z,96180.22
2023-01-17T13:38:26.861Z,96185.16
2023-01-17T13:40:55.963Z,96183.78
2023-01-17T13:43:27.545Z,96194.19
2023-01-17T13:45:57.529Z,96188.59
2023-01-17T13:48:30.354Z,96193.16
2023-01-17T13:51:00.550Z,96190.94
2023-01-17T13:53:50.052Z,96202.75
2023-01-17T13:56:32.701Z,96199.44
2023-01-17T13:59:20.053Z,96200.59
2023-01-17T14:01:52.528Z,96196.31
2023-01-17T14:04:21.475Z,96187.50
2023-01-17T14:06:54.630Z,96193.56
2023-01-17T14:09:26.561Z,96178.69
2023-01-17T14:12:01.601Z,96167.06
2023-01-17T14:14:48.207Z,96170.41
2023-01-17T14:17:47.361Z,96160.50
2023-01-17T14:20:36.730Z,96164.78
2023-01-17T14:23:22.595Z,96171.28
2023-01-17T14:25:51.755Z,96162.47
2023-01-17T14:28:24.850Z,96167.69
2023-01-17T14:30:56.019Z,96165.66
2023-01-17T14:33:29.582Z,96156.03
2023-01-17T14:35:58.904Z,96160.06
2023-01-17T14:38:29.455Z,96161.66
2023-01-17T14:40:58.870Z,96164.72
2023-01-17T14:43:28.570Z,96167.59
2023-01-17T14:46:00.983Z,96166.97
2023-01-17T14:48:29.648Z,96173.56
2023-01-17T14:51:00.098Z,96169.94
2023-01-17T14:53:30.658Z,96182.31
2023-01-17T14:56:02.854Z,96188.72
2023-01-17T14:58:31.966Z,96199.31
2023-01-17T15:01:01.958Z,96198.38
2023-01-17T15:03:31.734Z,96201.81
2023-01-17T15:06:07.188Z,96202.84
2023-01-17T15:08:36.789Z,96199.47
2023-01-17T15:11:06.541Z,96203.38
2023-01-17T15:13:44.320Z,96199.94
2023-01-17T15:16:20.157Z,96204.41
2023-01-17T15:18:48.374Z,96201.81
2023-01-17T15:21:19.300Z,96178.94
2023-01-17T15:23:51.837Z,96201.91
2023-01-17T15:26:22.143Z,96194.38
2023-01-17T15:28:49.951Z,96191.28
2023-01-17T15:31:19.881Z,96176.78
2023-01-17T15:33:48.811Z,96189.88
2023-01-17T15:36:28.761Z,96196.56
2023-01-17T15:39:00.181Z,96193.97
2023-01-17T15:41:30.853Z,96198.59
2023-01-17T15:43:58.810Z,96194.06
2023-01-17T15:46:31.700Z,96198.03
2023-01-17T15:49:16.614Z,96187.34
2023-01-17T15:51:49.413Z,96194.59
2023-01-17T15:54:44.443Z,96197.09
2023-01-17T15:57:29.539Z,96198.56
2023-01-17T16:00:00.506Z,96185.91
2023-01-17T16:02:43.696Z,96202.59
2023-01-17T16:05:32.895Z,96204.47
2023-01-17T16:08:23.141Z,96203.44
2023-01-17T16:10:54.729Z,96200.19
2023-01-17T16:13:22.391Z,96201.09
2023-01-17T16:15:50.045Z,96203.03
2023-01-17T16:18:20.224Z,96199.97
2023-01-17T16:20:50.536Z,96211.84
2023-01-17T16:23:18.157Z,96209.75
2023-01-17T16:25:46.334Z,96206.66
2023-01-17T16:28:15.315Z,96207.22
2023-01-17T16:30:43.264Z,96204.97
2023-01-17T16:33:11.075Z,96206.81
2023-01-17T16:35:40.020Z,96206.44
2023-01-17T16:38:09.450Z,96187.19
2023-01-17T16:40:41.124Z,96205.25
2023-01-17T16:43:08.904Z,96205.91
2023-01-17T16:45:40.696Z,96202.69
2023-01-17T16:48:08.772Z,96199.66
2023-01-17T16:50:36.405Z,96201.59
2023-01-17T16:53:04.031Z,96203.53
2023-01-17T16:55:31.584Z,96186.00
2023-01-17T16:57:59.302Z,96200.13
2023-01-17T17:00:27.680Z,96207.03
2023-01-17T17:02:56.727Z,96203.41
2023-01-17T17:05:25.970Z,96203.34
2023-01-17T17:07:54.291Z,96209.88
2023-01-17T17:10:25.081Z,96199.16
2023-01-17T17:12:52.870Z,96204.94
2023-01-17T17:15:21.493Z,96205.53
2023-01-17T17:17:49.916Z,96197.16
2023-01-17T17:20:19.149Z,96196.66
2023-01-17T17:22:51.258Z,96206.53
2023-01-17T17:25:19.916Z,96196.72
2023-01-17T17:27:47.696Z,96197.25
2023-01-17T17:30:15.889Z,96197.84
2023-01-17T17:32:46.584Z,96200.53
2023-01-17T17:35:14.331Z,96200.09
2023-01-17T17:37:43.264Z,96191.31
2023-01-17T17:40:12.120Z,96198.25
2023-01-17T17:42:39.876Z,96211.31
2023-01-17T17:45:07.995Z,96206.13
2023-01-17T17:47:35.581Z,96214.91
2023-01-17T17:50:03.159Z,96212.56
2023-01-17T17:52:32.334Z,96206.22
2023-01-17T17:55:01.367Z,96217.25
2023-01-17T17:57:28.987Z,96219.28
2023-01-17T17:59:59.461Z,96220.63
2023-01-17T18:02:27.045Z,96214.00
2023-01-17T18:04:54.614Z,96219.28
2023-01-17T18:07:22.232Z,96219.94
2023-01-17T18:09:49.992Z,96223.88
2023-01-17T18:12:18.974Z,96228.31
2023-01-17T18:14:46.668Z,96232.16
2023-01-17T18:17:15.104Z,96238.84
2023-01-17T18:19:45.962Z,96233.16
2023-01-17T18:22:13.580Z,96227.78
2023-01-17T18:24:41.396Z,96239.19
2023-01-17T18:27:10.436Z,96238.59
2023-01-17T18:29:39.892Z,96243.69
2023-01-17T18:32:07.511Z,96253.47
2023-01-17T18:34:39.168Z,96249.09
2023-01-17T18:37:06.791Z,96255.00
2023-01-17T18:39:34.464Z,96266.06
2023-01-17T18:42:02.227Z,96255.56
2023-01-17T18:44:30.044Z,96262.59
2023-01-17T18:47:01.939Z,96259.66
2023-01-17T18:49:29.623Z,96264.50
2023-01-17T18:51:57.341Z,96264.00
2023-01-17T18:54:24.965Z,96273.81
2023-01-17T18:56:52.580Z,96258.47
2023-01-17T18:59:21.358Z,96266.03
2023-01-17T19:01:49.216Z,96276.41
2023-01-17T19:04:18.880Z,96278.44
2023-01-17T19:06:48.031Z,96289.72
2023-01-17T19:09:16.399Z,96289.56
2023-01-17T19:11:45.009Z,96282.63
2023-01-17T19:14:12.899Z,96292.41
2023-01-17T19:16:42.056Z,96295.41
2023-01-17T19:19:11.733Z,96289.41
2023-01-17T19:21:40.861Z,96299.97
2023-01-17T19:24:09.186Z,96299.53
2023-01-17T19:26:37.537Z,96295.06
2023-01-17T19:29:06.667Z,96304.88
2023-01-17T19:31:39.551Z,96303.81
2023-01-17T19:34:07.372Z,96313.25
2023-01-17T19:36:36.668Z,96293.31
2023-01-17T19:39:09.351Z,96316.63
2023-01-17T19:41:38.941Z,96321.81
2023-01-17T19:44:08.379Z,96321.41
2023-01-17T19:46:36.953Z,96330.03
2023-01-17T19:49:05.922Z,96317.13
2023-01-17T19:51:33.717Z,96330.63
2023-01-17T19:54:03.939Z,96319.13
2023-01-17T19:56:33.009Z,96324.47
2023-01-17T19:59:02.069Z,96313.81
2023-01-17T20:01:32.629Z,96328.22
2023-01-17T20:04:01.302Z,96330.50
2023-01-17T20:06:31.349Z,96330.88
2023-01-17T20:08:59.376Z,96329.09
2023-01-17T20:11:28.941Z,96327.00
2023-01-17T20:13:59.836Z,96325.31
2023-01-17T20:16:29.830Z,96322.81
2023-01-17T20:18:58.522Z,96317.22
2023-01-17T20:21:27.585Z,96334.91
2023-01-17T20:23:56.659Z,96325.91
2023-01-17T20:26:29.090Z,96325.16
2023-01-17T20:28:58.133Z,96316.97
2023-01-17T20:31:26.842Z,96319.06
2023-01-17T20:33:55.685Z,96329.19
2023-01-17T20:36:24.619Z,96314.94
2023-01-17T20:38:53.204Z,96325.84
2023-01-17T20:41:22.600Z,96322.03
2023-01-17T20:43:51.702Z,96317.19
2023-01-17T20:46:22.277Z,96329.50
2023-01-17T20:48:51.774Z,96328.19
2023-01-17T20:51:21.864Z,96332.03
2023-01-17T20:53:52.717Z,96331.78
2023-01-17T20:56:20.975Z,96337.97
2023-01-17T20:58:50.790Z,96335.69
2023-01-17T21:01:21.381Z,96332.03
2023-01-17T21:03:51.521Z,96330.44
2023-01-17T21:06:19.956Z,96332.53
2023-01-17T21:08:48.655Z,96327.66
2023-01-17T21:11:18.706Z,96325.03
2023-01-17T21:13:48.559Z,96334.88
2023-01-17T21:16:17.715Z,96332.75
2023-01-17T21:18:49.026Z,96344.13
2023-01-17T21:21:18.633Z,96346.25
2023-01-17T21:23:46.642Z,96348.44
2023-01-17T21:26:15.667Z,96348.75
2023-01-17T21:28:44.899Z,96348.22
2023-01-17T21:31:20.310Z,96341.38
2023-01-17T21:33:51.079Z,96334.75
2023-01-17T21:36:18.995Z,96339.84
2023-01-17T21:38:49.627Z,96342.81
2023-01-17T21:41:17.254Z,96347.16
2023-01-17T21:43:44.888Z,96343.72
2023-01-17T21:46:12.646Z,96343.44
2023-01-17T21:48:40.581Z,96345.03
2023-01-17T21:51:09.995Z,96341.75
2023-01-17T21:53:38.505Z,96342.00
2023-01-17T21:56:25.491Z,96340.47
2023-01-17T21:58:56.474Z,96340.09
2023-01-17T22:01:26.005Z,96350.25
2023-01-17T22:03:56.602Z,96348.81
2023-01-17T22:06:27.259Z,96349.56
2023-01-17T22:08:55.221Z,96358.88
2023-01-17T22:11:24.301Z,96349.22
2023-01-17T22:13:52.607Z,96355.19
2023-01-17T22:16:23.197Z,96358.72
2023-01-17T22:18:50.912Z,96350.78
2023-01-17T22:21:20.062Z,96344.97
2023-01-17T22:23:50.582Z,96356.19
2023-01-17T22:26:18.340Z,96359.63
2023-01-17T22:28:45.976Z,96358.72
2023-01-17T22:31:15.412Z,96353.69
2023-01-17T22:33:44.704Z,96352.84
2023-01-17T22:36:14.509Z,96357.94
2023-01-17T22:38:42.713Z,96358.19
2023-01-17T22:41:13.483Z,96355.28
2023-01-17T22:43:49.894Z,96354.91
2023-01-17T22:46:19.366Z,96353.75
2023-01-17T22:48:47.479Z,96356.13
2023-01-17T22:51:16.960Z,96362.16
2023-01-17T22:53:46.418Z,96357.19
2023-01-17T22:56:16.793Z,96352.16
2023-01-17T22:58:49.870Z,96352.84
2023-01-17T23:01:18.990Z,96341.34
2023-01-17T23:03:51.840Z,96338.44
2023-01-17T23:06:22.347Z,96349.25
2023-01-17T23:08:51.815Z,96349.25
2023-01-17T23:11:40.721Z,96354.44
2023-01-17T23:14:14.559Z,96350.53
2023-01-17T23:17:02.128Z,96353.91
2023-01-17T23:19:31.856Z,96352.09
2023-01-17T23:22:16.828Z,96350.09
2023-01-17T23:24:45.865Z,96342.00
2023-01-17T23:27:34.876Z,96356.50
2023-01-17T23:30:03.373Z,96347.25
2023-01-17T23:32:31.103Z,96348.88
2023-01-17T23:34:58.743Z,96349.34
2023-01-17T23:37:52.629Z,96355.75
2023-01-17T23:40:20.518Z,96348.09
2023-01-17T23:43:06.890Z,96331.41
2023-01-17T23:45:35.603Z,96346.06
2023-01-17T23:48:04.928Z,96345.69
2023-01-17T23:50:32.508Z,96346.69
2023-01-17T23:53:00.354Z,96344.25
2023-01-17T23:55:28.043Z,96351.19
2023-01-17T23:57:57.088Z,96343.56
